createdAt,value
2018-01-08T00:00:16.863Z,1020.59
2018-01-08T00:01:16.889Z,1020.58
2018-01-08T00:03:17.498Z,1020.56
2018-01-08T00:04:16.979Z,1020.58
2018-01-08T00:05:17.112Z,1020.56
2018-01-08T00:06:17.039Z,1020.59
2018-01-08T00:07:17.071Z,1020.56
2018-01-08T00:08:17.152Z,1020.51
2018-01-08T00:09:17.131Z,1020.49
2018-01-08T00:10:17.520Z,1020.52
2018-01-08T00:11:17.201Z,1020.53
2018-01-08T00:12:17.274Z,1020.52
2018-01-08T00:13:17.263Z,1020.53
2018-01-08T00:15:17.424Z,1020.52
2018-01-08T00:16:17.516Z,1020.56
2018-01-08T00:17:17.826Z,1020.54
2018-01-08T00:18:17.625Z,1020.57
2018-01-08T00:19:17.435Z,1020.54
2018-01-08T00:20:17.694Z,1020.53
2018-01-08T00:21:17.521Z,1020.51
2018-01-08T00:22:17.525Z,1020.52
2018-01-08T00:23:17.556Z,1020.56
2018-01-08T00:24:17.950Z,1020.50
2018-01-08T00:25:17.629Z,1020.53
2018-01-08T00:26:17.649Z,1020.54
2018-01-08T00:27:17.679Z,1020.55
2018-01-08T00:29:17.739Z,1020.54
2018-01-08T00:30:17.775Z,1020.45
2018-01-08T00:31:18.105Z,1020.52
2018-01-08T00:32:17.830Z,1020.48
2018-01-08T00:33:17.869Z,1020.46
2018-01-08T00:34:17.974Z,1020.47
2018-01-08T00:35:17.924Z,1020.44
2018-01-08T00:36:17.949Z,1020.40
2018-01-08T00:37:18.282Z,1020.42
2018-01-08T00:38:18.014Z,1020.43
2018-01-08T00:39:18.051Z,1020.42
2018-01-08T00:40:18.073Z,1020.39
2018-01-08T00:41:18.104Z,1020.39
2018-01-08T00:43:18.170Z,1020.37
2018-01-08T00:44:18.554Z,1020.36
2018-01-08T00:45:18.229Z,1020.34
2018-01-08T00:46:18.258Z,1020.35
2018-01-08T00:47:18.292Z,1020.28
2018-01-08T00:48:18.322Z,1020.31
2018-01-08T00:49:18.345Z,1020.29
2018-01-08T00:50:18.389Z,1020.26
2018-01-08T00:51:20.762Z,1020.27
2018-01-08T00:52:18.449Z,1020.29
2018-01-08T00:53:18.470Z,1020.28
2018-01-08T00:54:18.560Z,1020.25
2018-01-08T00:55:18.530Z,1020.23
2018-01-08T00:56:18.567Z,1020.27
2018-01-08T00:57:18.598Z,1020.26
2018-01-08T00:58:18.933Z,1020.25
2018-01-08T00:59:18.655Z,1020.24
2018-01-08T01:00:18.686Z,1020.25
2018-01-08T01:01:18.712Z,1020.25
2018-01-08T01:02:18.741Z,1020.18
2018-01-08T01:03:18.772Z,1020.19
2018-01-08T01:04:19.157Z,1020.23
2018-01-08T01:05:18.833Z,1020.23
2018-01-08T01:06:18.867Z,1020.23
2018-01-08T01:07:18.896Z,1020.21
2018-01-08T01:08:18.929Z,1020.20
2018-01-08T01:09:18.956Z,1020.19
2018-01-08T01:10:19.342Z,1020.20
2018-01-08T01:11:19.040Z,1020.20
2018-01-08T01:12:19.061Z,1020.20
2018-01-08T01:13:19.077Z,1020.20
2018-01-08T01:14:19.112Z,1020.18
2018-01-08T01:15:19.136Z,1020.20
2018-01-08T01:16:19.523Z,1020.21
2018-01-08T01:17:19.256Z,1020.20
2018-01-08T01:18:19.234Z,1020.15
2018-01-08T01:19:19.267Z,1020.20
2018-01-08T01:20:19.288Z,1020.25
2018-01-08T01:21:19.317Z,1020.24
2018-01-08T01:22:19.351Z,1020.20
2018-01-08T01:23:19.734Z,1020.22
2018-01-08T01:24:19.417Z,1020.23
2018-01-08T01:25:19.541Z,1020.27
2018-01-08T01:26:19.471Z,1020.28
2018-01-08T01:27:19.507Z,1020.25
2018-01-08T01:28:19.541Z,1020.22
2018-01-08T01:29:19.560Z,1020.22
2018-01-08T01:30:19.946Z,1020.17
2018-01-08T01:31:19.629Z,1020.19
2018-01-08T01:32:19.661Z,1020.15
2018-01-08T01:33:19.688Z,1020.11
2018-01-08T01:34:19.726Z,1020.11
2018-01-08T01:35:19.747Z,1020.13
2018-01-08T01:36:19.779Z,1020.08
2018-01-08T01:37:20.156Z,1020.07
2018-01-08T01:38:19.837Z,1020.07
2018-01-08T01:39:19.868Z,1020.06
2018-01-08T01:40:19.901Z,1020.04
2018-01-08T01:41:19.938Z,1020.01
2018-01-08T01:42:19.964Z,1020.04
2018-01-08T01:43:20.052Z,1020.01
2018-01-08T01:44:20.374Z,1020.01
2018-01-08T01:45:20.064Z,1020.03
2018-01-08T01:46:20.082Z,1020.01
2018-01-08T01:47:20.115Z,1020.02
2018-01-08T01:48:20.146Z,1019.99
2018-01-08T01:49:20.224Z,1020.04
2018-01-08T01:50:20.211Z,1020.03
2018-01-08T01:51:20.532Z,1019.99
2018-01-08T01:52:20.278Z,1020.00
2018-01-08T01:53:20.302Z,1019.97
2018-01-08T01:54:20.329Z,1019.95
2018-01-08T01:55:20.353Z,1019.99
2018-01-08T01:56:20.383Z,1019.96
2018-01-08T01:57:20.411Z,1019.99
2018-01-08T01:58:20.794Z,1020.04
2018-01-08T01:59:20.473Z,1020.01
2018-01-08T02:00:20.559Z,1020.06
2018-01-08T02:01:20.539Z,1020.04
2018-01-08T02:02:20.573Z,1020.09
2018-01-08T02:03:20.598Z,1020.07
2018-01-08T02:05:21.017Z,1020.11
2018-01-08T02:06:20.697Z,1020.08
2018-01-08T02:07:20.721Z,1020.02
2018-01-08T02:08:20.761Z,1020.05
2018-01-08T02:09:20.837Z,1020.00
2018-01-08T02:10:20.818Z,1020.00
2018-01-08T02:11:20.847Z,1019.97
2018-01-08T02:12:21.230Z,1019.92
2018-01-08T02:13:20.916Z,1019.91
2018-01-08T02:14:20.961Z,1019.91
2018-01-08T02:15:20.975Z,1019.89
2018-01-08T02:16:20.990Z,1019.85
2018-01-08T02:17:21.023Z,1019.88
2018-01-08T02:18:21.067Z,1019.83
2018-01-08T02:19:21.470Z,1019.82
2018-01-08T02:20:21.174Z,1019.79
2018-01-08T02:21:21.147Z,1019.77
2018-01-08T02:22:21.181Z,1019.77
2018-01-08T02:23:21.210Z,1019.79
2018-01-08T02:24:21.238Z,1019.80
2018-01-08T02:25:21.274Z,1019.81
2018-01-08T02:26:21.726Z,1019.79
2018-01-08T02:27:21.456Z,1019.73
2018-01-08T02:28:21.360Z,1019.76
2018-01-08T02:29:21.442Z,1019.77
2018-01-08T02:30:21.476Z,1019.76
2018-01-08T02:31:21.467Z,1019.76
2018-01-08T02:32:21.490Z,1019.71
2018-01-08T02:33:21.858Z,1019.72
2018-01-08T02:34:21.725Z,1019.73
2018-01-08T02:35:21.570Z,1019.75
2018-01-08T02:36:21.598Z,1019.85
2018-01-08T02:37:21.628Z,1019.85
2018-01-08T02:38:21.664Z,1019.89
2018-01-08T02:39:21.744Z,1019.86
2018-01-08T02:40:22.082Z,1019.86
2018-01-08T02:41:21.752Z,1019.89
2018-01-08T02:42:21.785Z,1019.92
2018-01-08T02:43:21.830Z,1019.96
2018-01-08T02:44:21.845Z,1019.95
2018-01-08T02:45:22.103Z,1020.01
2018-01-08T02:46:21.903Z,1020.00
2018-01-08T02:47:21.960Z,1020.00
2018-01-08T02:48:22.027Z,1020.00
2018-01-08T02:49:22.002Z,1019.99
2018-01-08T02:50:22.025Z,1019.98
2018-01-08T02:51:22.060Z,1019.95
2018-01-08T02:52:22.087Z,1019.98
2018-01-08T02:53:22.466Z,1019.98
2018-01-08T02:54:22.148Z,1019.96
2018-01-08T02:55:22.179Z,1019.96
2018-01-08T02:56:22.219Z,1019.95
2018-01-08T02:57:22.237Z,1019.98
2018-01-08T02:58:22.268Z,1019.95
2018-01-08T02:59:22.652Z,1019.92
2018-01-08T03:00:22.433Z,1019.89
2018-01-08T03:01:22.366Z,1019.87
2018-01-08T03:02:22.465Z,1019.86
2018-01-08T03:03:22.420Z,1019.87
2018-01-08T03:04:22.454Z,1019.84
2018-01-08T03:05:23.151Z,1019.86
2018-01-08T03:06:22.643Z,1019.89
2018-01-08T03:07:22.662Z,1019.88
2018-01-08T03:08:22.691Z,1019.84
2018-01-08T03:09:22.722Z,1019.87
2018-01-08T03:10:22.877Z,1019.86
2018-01-08T03:11:22.784Z,1019.84
2018-01-08T03:12:23.173Z,1019.87
2018-01-08T03:13:22.893Z,1019.91
2018-01-08T03:14:22.875Z,1019.90
2018-01-08T03:15:22.905Z,1019.87
2018-01-08T03:16:22.934Z,1019.85
2018-01-08T03:17:22.968Z,1019.90
2018-01-08T03:18:22.995Z,1019.87
2018-01-08T03:19:23.376Z,1019.90
2018-01-08T03:20:23.062Z,1019.85
2018-01-08T03:21:23.084Z,1019.88
2018-01-08T03:22:23.130Z,1019.91
2018-01-08T03:23:23.166Z,1019.91
2018-01-08T03:24:23.183Z,1019.93
2018-01-08T03:25:23.210Z,1019.90
2018-01-08T03:26:23.593Z,1019.92
2018-01-08T03:27:23.276Z,1019.93
2018-01-08T03:28:23.323Z,1019.96
2018-01-08T03:29:23.342Z,1019.95
2018-01-08T03:30:23.367Z,1020.01
2018-01-08T03:31:23.406Z,1019.99
2018-01-08T03:32:23.420Z,1020.02
2018-01-08T03:33:23.804Z,1020.01
2018-01-08T03:34:23.481Z,1020.00
2018-01-08T03:35:23.510Z,1019.97
2018-01-08T03:36:23.577Z,1020.01
2018-01-08T03:37:23.577Z,1019.97
2018-01-08T03:38:23.606Z,1019.97
2018-01-08T03:39:23.636Z,1020.01
2018-01-08T03:40:24.020Z,1019.98
2018-01-08T03:41:23.693Z,1019.99
2018-01-08T03:42:23.728Z,1020.00
2018-01-08T03:43:23.825Z,1020.04
2018-01-08T03:44:23.780Z,1020.03
2018-01-08T03:45:23.808Z,1020.02
2018-01-08T03:46:23.835Z,1020.01
2018-01-08T03:47:24.219Z,1020.03
2018-01-08T03:48:23.924Z,1020.02
2018-01-08T03:49:23.931Z,1020.03
2018-01-08T03:50:23.961Z,1019.99
2018-01-08T03:51:23.989Z,1019.98
2018-01-08T03:52:24.038Z,1019.95
2018-01-08T03:53:24.072Z,1019.99
2018-01-08T03:54:24.431Z,1019.98
2018-01-08T03:55:24.112Z,1019.99
2018-01-08T03:56:24.141Z,1019.97
2018-01-08T03:57:24.153Z,1020.01
2018-01-08T03:58:24.184Z,1019.99
2018-01-08T03:59:24.134Z,1020.02
2018-01-08T04:00:24.214Z,1019.99
2018-01-08T04:01:24.622Z,1020.00
2018-01-08T04:02:24.354Z,1020.01
2018-01-08T04:03:24.376Z,1020.00
2018-01-08T04:04:24.398Z,1020.02
2018-01-08T04:05:24.450Z,1019.93
2018-01-08T04:06:24.473Z,1019.96
2018-01-08T04:07:24.498Z,1019.98
2018-01-08T04:08:24.869Z,1019.95
2018-01-08T04:09:24.598Z,1019.96
2018-01-08T04:10:24.590Z,1019.93
2018-01-08T04:11:24.610Z,1019.98
2018-01-08T04:12:24.655Z,1019.95
2018-01-08T04:13:24.680Z,1019.95
2018-01-08T04:14:24.700Z,1019.96
2018-01-08T04:15:25.088Z,1019.96
2018-01-08T04:16:24.762Z,1019.97
2018-01-08T04:17:24.788Z,1019.92
2018-01-08T04:18:24.826Z,1019.92
2018-01-08T04:19:24.853Z,1019.94
2018-01-08T04:20:24.903Z,1019.96
2018-01-08T04:21:24.910Z,1019.94
2018-01-08T04:22:25.349Z,1019.94
2018-01-08T04:23:24.981Z,1019.90
2018-01-08T04:24:25.007Z,1019.91
2018-01-08T04:25:25.034Z,1019.87
2018-01-08T04:26:25.161Z,1019.89
2018-01-08T04:27:25.095Z,1019.90
2018-01-08T04:28:25.129Z,1019.90
2018-01-08T04:29:25.500Z,1019.87
2018-01-08T04:30:25.176Z,1019.87
2018-01-08T04:31:25.214Z,1019.87
2018-01-08T04:32:25.239Z,1019.85
2018-01-08T04:33:25.268Z,1019.88
2018-01-08T04:34:25.265Z,1019.85
2018-01-08T04:35:25.355Z,1019.84
2018-01-08T04:36:25.699Z,1019.88
2018-01-08T04:37:25.363Z,1019.90
2018-01-08T04:38:25.321Z,1019.89
2018-01-08T04:39:25.351Z,1019.89
2018-01-08T04:40:25.393Z,1019.91
2018-01-08T04:41:25.399Z,1019.88
2018-01-08T04:42:25.823Z,1019.91
2018-01-08T04:43:25.463Z,1019.91
2018-01-08T04:44:25.506Z,1019.90
2018-01-08T04:45:25.528Z,1019.93
2018-01-08T04:46:25.552Z,1019.91
2018-01-08T04:47:25.619Z,1019.90
2018-01-08T04:48:25.980Z,1019.91
2018-01-08T04:49:25.651Z,1019.91
2018-01-08T04:50:25.676Z,1019.91
2018-01-08T04:51:25.702Z,1019.91
2018-01-08T04:52:25.737Z,1019.90
2018-01-08T04:53:25.825Z,1019.88
2018-01-08T04:54:26.188Z,1019.85
2018-01-08T04:55:25.826Z,1019.88
2018-01-08T04:56:25.862Z,1019.89
2018-01-08T04:57:25.887Z,1019.83
2018-01-08T04:58:25.921Z,1019.83
2018-01-08T04:59:25.946Z,1019.86
2018-01-08T05:00:25.976Z,1019.88
2018-01-08T05:01:26.356Z,1019.86
2018-01-08T05:02:26.047Z,1019.84
2018-01-08T05:03:26.074Z,1019.90
2018-01-08T05:04:26.103Z,1019.88
2018-01-08T05:06:26.209Z,1019.85
2018-01-08T05:07:26.193Z,1019.88
2018-01-08T05:08:26.223Z,1019.87
2018-01-08T05:09:26.275Z,1019.87
2018-01-08T05:10:26.283Z,1019.88
2018-01-08T05:11:26.312Z,1019.89
2018-01-08T05:12:26.341Z,1019.89
2018-01-08T05:13:26.374Z,1019.91
2018-01-08T05:14:26.704Z,1019.88
2018-01-08T05:15:26.444Z,1019.95
2018-01-08T05:16:26.468Z,1019.90
2018-01-08T05:17:26.627Z,1019.92
2018-01-08T05:18:26.527Z,1019.94
2018-01-08T05:19:26.552Z,1019.89
2018-01-08T05:20:26.584Z,1019.97
2018-01-08T05:21:26.966Z,1019.94
2018-01-08T05:22:26.644Z,1019.95
2018-01-08T05:23:26.674Z,1019.92
2018-01-08T05:24:26.708Z,1019.95
2018-01-08T05:25:26.738Z,1019.94
2018-01-08T05:26:26.777Z,1019.99
2018-01-08T05:27:26.846Z,1020.01
2018-01-08T05:28:27.192Z,1019.95
2018-01-08T05:29:26.858Z,1020.00
2018-01-08T05:30:26.899Z,1019.99
2018-01-08T05:31:26.920Z,1019.99
2018-01-08T05:32:26.952Z,1019.98
2018-01-08T05:33:26.978Z,1019.94
2018-01-08T05:34:27.011Z,1019.94
2018-01-08T05:35:27.102Z,1019.92
2018-01-08T05:36:27.073Z,1019.94
2018-01-08T05:37:27.099Z,1019.94
2018-01-08T05:38:27.131Z,1019.91
2018-01-08T05:39:27.199Z,1019.91
2018-01-08T05:40:27.193Z,1019.88
2018-01-08T05:41:27.604Z,1019.92
2018-01-08T05:42:27.261Z,1019.91
2018-01-08T05:43:27.388Z,1019.89
2018-01-08T05:44:27.361Z,1019.91
2018-01-08T05:45:27.358Z,1019.89
2018-01-08T05:46:27.389Z,1019.90
2018-01-08T05:47:27.761Z,1019.88
2018-01-08T05:48:27.524Z,1019.90
2018-01-08T05:49:27.514Z,1019.89
2018-01-08T05:50:27.498Z,1019.87
2018-01-08T05:51:27.528Z,1019.89
2018-01-08T05:52:27.654Z,1019.87
2018-01-08T05:53:27.936Z,1019.88
2018-01-08T05:54:27.612Z,1019.89
2018-01-08T05:55:27.649Z,1019.89
2018-01-08T05:56:27.678Z,1019.90
2018-01-08T05:57:27.713Z,1019.90
2018-01-08T05:58:27.866Z,1019.90
2018-01-08T05:59:28.128Z,1019.93
2018-01-08T06:00:27.807Z,1019.94
2018-01-08T06:01:27.827Z,1019.91
2018-01-08T06:02:27.857Z,1019.94
2018-01-08T06:04:27.929Z,1019.91
2018-01-08T06:05:27.991Z,1019.88
2018-01-08T06:06:28.334Z,1019.90
2018-01-08T06:07:28.010Z,1019.88
2018-01-08T06:08:28.041Z,1019.86
2018-01-08T06:09:28.071Z,1019.84
2018-01-08T06:10:28.150Z,1019.82
2018-01-08T06:11:28.129Z,1019.83
2018-01-08T06:12:28.227Z,1019.84
2018-01-08T06:13:28.510Z,1019.83
2018-01-08T06:14:28.228Z,1019.83
2018-01-08T06:15:28.256Z,1019.77
2018-01-08T06:16:28.286Z,1019.77
2018-01-08T06:17:28.311Z,1019.79
2018-01-08T06:18:28.344Z,1019.75
2018-01-08T06:19:28.372Z,1019.74
2018-01-08T06:20:28.756Z,1019.76
2018-01-08T06:21:28.437Z,1019.73
2018-01-08T06:22:28.462Z,1019.75
2018-01-08T06:23:28.566Z,1019.72
2018-01-08T06:24:28.529Z,1019.75
2018-01-08T06:26:28.585Z,1019.67
2018-01-08T06:27:28.965Z,1019.65
2018-01-08T06:28:28.645Z,1019.68
2018-01-08T06:29:28.673Z,1019.71
2018-01-08T06:30:28.712Z,1019.73
2018-01-08T06:31:28.734Z,1019.68
2018-01-08T06:32:28.766Z,1019.74
2018-01-08T06:33:28.798Z,1019.73
2018-01-08T06:34:29.124Z,1019.71
2018-01-08T06:35:28.856Z,1019.70
2018-01-08T06:36:28.931Z,1019.70
2018-01-08T06:37:28.969Z,1019.72
2018-01-08T06:38:29.043Z,1019.70
2018-01-08T06:39:29.048Z,1019.70
2018-01-08T06:40:29.012Z,1019.71
2018-01-08T06:41:29.037Z,1019.71
2018-01-08T06:42:29.066Z,1019.74
2018-01-08T06:43:29.100Z,1019.73
2018-01-08T06:44:29.125Z,1019.70
2018-01-08T06:45:29.161Z,1019.71
2018-01-08T06:46:29.223Z,1019.73
2018-01-08T06:47:29.589Z,1019.68
2018-01-08T06:48:29.253Z,1019.70
2018-01-08T06:49:29.276Z,1019.79
2018-01-08T06:50:30.155Z,1019.76
2018-01-08T06:51:29.347Z,1019.75
2018-01-08T06:52:29.376Z,1019.73
2018-01-08T06:53:29.455Z,1019.76
2018-01-08T06:54:29.857Z,1019.77
2018-01-08T06:56:29.493Z,1019.75
2018-01-08T06:57:29.523Z,1019.79
2018-01-08T06:58:29.599Z,1019.74
2018-01-08T06:59:29.632Z,1019.78
2018-01-08T07:00:29.910Z,1019.78
2018-01-08T07:01:29.642Z,1019.77
2018-01-08T07:02:29.708Z,1019.74
2018-01-08T07:03:29.701Z,1019.75
2018-01-08T07:04:29.745Z,1019.78
2018-01-08T07:05:29.774Z,1019.78
2018-01-08T07:06:30.094Z,1019.80
2018-01-08T07:07:29.820Z,1019.75
2018-01-08T07:08:30.795Z,1019.73
2018-01-08T07:09:29.902Z,1019.76
2018-01-08T07:10:29.917Z,1019.71
2018-01-08T07:12:30.043Z,1019.77
2018-01-08T07:13:30.362Z,1019.81
2018-01-08T07:14:30.050Z,1019.76
2018-01-08T07:15:30.102Z,1019.79
2018-01-08T07:16:30.091Z,1019.79
2018-01-08T07:17:30.131Z,1019.78
2018-01-08T07:18:30.167Z,1019.82
2018-01-08T07:20:30.565Z,1019.78
2018-01-08T07:21:30.254Z,1019.82
2018-01-08T07:22:30.273Z,1019.82
2018-01-08T07:23:30.304Z,1019.85
2018-01-08T07:24:30.396Z,1019.81
2018-01-08T07:25:30.370Z,1019.84
2018-01-08T07:26:30.746Z,1019.83
2018-01-08T07:27:30.436Z,1019.78
2018-01-08T07:28:30.470Z,1019.81
2018-01-08T07:29:30.488Z,1019.78
2018-01-08T07:30:30.519Z,1019.78
2018-01-08T07:31:30.557Z,1019.84
2018-01-08T07:32:30.593Z,1019.83
2018-01-08T07:33:30.957Z,1019.85
2018-01-08T07:34:30.680Z,1019.82
2018-01-08T07:35:30.672Z,1019.85
2018-01-08T07:36:30.703Z,1019.78
2018-01-08T07:37:30.732Z,1019.81
2018-01-08T07:38:30.756Z,1019.82
2018-01-08T07:39:30.839Z,1019.83
2018-01-08T07:40:31.172Z,1019.86
2018-01-08T07:41:30.851Z,1019.85
2018-01-08T07:42:30.877Z,1019.82
2018-01-08T07:43:30.907Z,1019.83
2018-01-08T07:44:30.980Z,1019.84
2018-01-08T07:45:31.044Z,1019.84
2018-01-08T07:46:31.061Z,1019.87
2018-01-08T07:47:31.401Z,1019.85
2018-01-08T07:48:31.077Z,1019.85
2018-01-08T07:49:31.142Z,1019.86
2018-01-08T07:50:31.129Z,1019.82
2018-01-08T07:51:31.152Z,1019.85
2018-01-08T07:52:31.180Z,1019.83
2018-01-08T07:53:31.214Z,1019.82
2018-01-08T07:54:31.628Z,1019.84
2018-01-08T07:55:31.274Z,1019.81
2018-01-08T07:56:31.302Z,1019.84
2018-01-08T07:57:31.340Z,1019.82
2018-01-08T07:58:31.376Z,1019.80
2018-01-08T07:59:31.395Z,1019.80
2018-01-08T08:00:31.436Z,1019.81
2018-01-08T08:01:31.817Z,1019.77
2018-01-08T08:02:31.489Z,1019.84
2018-01-08T08:03:31.524Z,1019.77
2018-01-08T08:04:31.548Z,1019.76
2018-01-08T08:05:31.583Z,1019.77
2018-01-08T08:06:31.606Z,1019.81
2018-01-08T08:07:31.664Z,1019.81
2018-01-08T08:08:32.024Z,1019.80
2018-01-08T08:09:31.754Z,1019.80
2018-01-08T08:10:31.726Z,1019.80
2018-01-08T08:11:31.757Z,1019.78
2018-01-08T08:12:31.792Z,1019.81
2018-01-08T08:13:31.832Z,1019.83
2018-01-08T08:14:31.906Z,1019.85
2018-01-08T08:15:32.229Z,1019.85
2018-01-08T08:16:31.980Z,1019.88
2018-01-08T08:17:31.997Z,1019.91
2018-01-08T08:18:31.981Z,1019.89
2018-01-08T08:19:32.007Z,1019.95
2018-01-08T08:20:32.033Z,1019.96
2018-01-08T08:21:32.077Z,1019.94
2018-01-08T08:22:32.437Z,1019.96
2018-01-08T08:23:32.126Z,1019.98
2018-01-08T08:24:32.148Z,1019.98
2018-01-08T08:25:32.193Z,1019.98
2018-01-08T08:26:32.316Z,1019.97
2018-01-08T08:27:32.291Z,1019.98
2018-01-08T08:28:32.298Z,1019.99
2018-01-08T08:30:32.686Z,1020.00
2018-01-08T08:31:32.360Z,1019.96
2018-01-08T08:32:32.393Z,1019.91
2018-01-08T08:33:32.484Z,1019.95
2018-01-08T08:34:32.463Z,1019.92
2018-01-08T08:35:32.486Z,1019.89
2018-01-08T08:36:32.515Z,1019.92
2018-01-08T08:37:32.890Z,1019.93
2018-01-08T08:38:32.587Z,1019.97
2018-01-08T08:39:32.633Z,1019.87
2018-01-08T08:40:32.671Z,1019.93
2018-01-08T08:41:32.661Z,1019.89
2018-01-08T08:42:32.744Z,1019.91
2018-01-08T08:43:32.725Z,1019.89
2018-01-08T08:44:33.123Z,1019.91
2018-01-08T08:45:32.785Z,1019.88
2018-01-08T08:46:32.819Z,1019.84
2018-01-08T08:47:32.887Z,1019.91
2018-01-08T08:48:32.874Z,1019.89
2018-01-08T08:49:32.904Z,1019.91
2018-01-08T08:50:32.938Z,1019.84
2018-01-08T08:51:33.319Z,1019.82
2018-01-08T08:52:33.021Z,1019.81
2018-01-08T08:53:33.029Z,1019.81
2018-01-08T08:54:33.067Z,1019.81
2018-01-08T08:55:33.089Z,1019.81
2018-01-08T08:56:33.122Z,1019.83
2018-01-08T08:57:33.208Z,1019.82
2018-01-08T08:58:33.531Z,1019.84
2018-01-08T08:59:33.263Z,1019.84
2018-01-08T09:00:33.257Z,1019.82
2018-01-08T09:01:33.268Z,1019.83
2018-01-08T09:02:33.326Z,1019.79
2018-01-08T09:03:33.402Z,1019.86
2018-01-08T09:04:33.363Z,1019.84
2018-01-08T09:05:33.743Z,1019.86
2018-01-08T09:06:33.420Z,1019.84
2018-01-08T09:07:33.555Z,1019.85
2018-01-08T09:08:33.493Z,1019.86
2018-01-08T09:09:33.510Z,1019.86
2018-01-08T09:10:33.549Z,1019.87
2018-01-08T09:11:33.574Z,1019.87
2018-01-08T09:12:33.953Z,1019.87
2018-01-08T09:13:33.696Z,1019.90
2018-01-08T09:14:33.664Z,1019.82
2018-01-08T09:15:33.703Z,1019.83
2018-01-08T09:17:33.755Z,1019.85
2018-01-08T09:18:34.140Z,1019.85
2018-01-08T09:19:33.864Z,1019.83
2018-01-08T09:20:33.843Z,1019.85
2018-01-08T09:21:33.876Z,1019.83
2018-01-08T09:22:33.907Z,1019.83
2018-01-08T09:23:33.934Z,1019.83
2018-01-08T09:24:34.319Z,1019.80
2018-01-08T09:25:34.066Z,1019.89
2018-01-08T09:26:34.025Z,1019.87
2018-01-08T09:27:34.062Z,1019.87
2018-01-08T09:28:34.092Z,1019.91
2018-01-08T09:29:34.114Z,1019.90
2018-01-08T09:30:34.497Z,1019.91
2018-01-08T09:31:34.176Z,1019.93
2018-01-08T09:32:34.219Z,1019.90
2018-01-08T09:33:34.288Z,1019.89
2018-01-08T09:34:34.283Z,1019.85
2018-01-08T09:36:34.335Z,1019.82
2018-01-08T09:37:34.713Z,1019.80
2018-01-08T09:38:34.544Z,1019.77
2018-01-08T09:39:34.469Z,1019.80
2018-01-08T09:40:34.451Z,1019.80
2018-01-08T09:41:34.544Z,1019.79
2018-01-08T09:42:34.560Z,1019.80
2018-01-08T09:43:34.557Z,1019.80
2018-01-08T09:44:35.182Z,1019.80
2018-01-08T09:45:34.604Z,1019.82
2018-01-08T09:46:34.638Z,1019.82
2018-01-08T09:47:34.680Z,1019.79
2018-01-08T09:48:34.898Z,1019.79
2018-01-08T09:49:34.751Z,1019.82
2018-01-08T09:50:34.755Z,1019.82
2018-01-08T09:51:35.118Z,1019.81
2018-01-08T09:52:34.816Z,1019.82
2018-01-08T09:53:34.846Z,1019.84
2018-01-08T09:54:34.929Z,1019.83
2018-01-08T09:55:34.909Z,1019.84
2018-01-08T09:56:34.942Z,1019.81
2018-01-08T09:57:34.971Z,1019.77
2018-01-08T09:58:35.347Z,1019.83
2018-01-08T09:59:35.074Z,1019.81
2018-01-08T10:00:35.065Z,1019.90
2018-01-08T10:01:35.088Z,1019.85
2018-01-08T10:02:35.172Z,1019.81
2018-01-08T10:03:35.149Z,1019.85
2018-01-08T10:04:35.197Z,1019.83
2018-01-08T10:05:35.584Z,1019.86
2018-01-08T10:06:35.257Z,1019.76
2018-01-08T10:07:35.282Z,1019.79
2018-01-08T10:08:35.307Z,1019.80
2018-01-08T10:09:35.344Z,1019.72
2018-01-08T10:10:35.366Z,1019.72
2018-01-08T10:11:35.453Z,1019.70
2018-01-08T10:12:36.964Z,1019.68
2018-01-08T10:13:35.468Z,1019.66
2018-01-08T10:14:35.484Z,1019.64
2018-01-08T10:15:35.568Z,1019.69
2018-01-08T10:16:35.667Z,1019.66
2018-01-08T10:17:35.587Z,1019.64
2018-01-08T10:18:35.604Z,1019.64
2018-01-08T10:19:35.985Z,1019.63
2018-01-08T10:20:35.677Z,1019.63
2018-01-08T10:21:35.695Z,1019.64
2018-01-08T10:22:35.732Z,1019.60
2018-01-08T10:23:35.758Z,1019.60
2018-01-08T10:24:35.800Z,1019.59
2018-01-08T10:25:35.913Z,1019.51
2018-01-08T10:26:36.211Z,1019.48
2018-01-08T10:27:35.890Z,1019.49
2018-01-08T10:28:35.918Z,1019.49
2018-01-08T10:29:35.938Z,1019.48
2018-01-08T10:30:36.058Z,1019.44
2018-01-08T10:31:36.006Z,1019.45
2018-01-08T10:32:36.043Z,1019.45
2018-01-08T10:33:36.364Z,1019.47
2018-01-08T10:34:37.301Z,1019.46
2018-01-08T10:35:36.125Z,1019.35
2018-01-08T10:36:36.155Z,1019.38
2018-01-08T10:37:36.192Z,1019.34
2018-01-08T10:38:36.211Z,1019.38
2018-01-08T10:39:36.247Z,1019.27
2018-01-08T10:40:36.629Z,1019.28
2018-01-08T10:41:36.309Z,1019.24
2018-01-08T10:42:36.333Z,1019.20
2018-01-08T10:43:36.390Z,1019.21
2018-01-08T10:44:36.449Z,1019.14
2018-01-08T10:45:36.483Z,1019.22
2018-01-08T10:46:36.459Z,1019.15
2018-01-08T10:47:36.837Z,1019.14
2018-01-08T10:48:36.566Z,1019.12
2018-01-08T10:49:36.548Z,1019.15
2018-01-08T10:50:36.574Z,1019.09
2018-01-08T10:51:36.607Z,1019.09
2018-01-08T10:52:36.640Z,1019.09
2018-01-08T10:53:36.664Z,1019.11
2018-01-08T10:54:37.058Z,1019.08
2018-01-08T10:55:36.728Z,1019.08
2018-01-08T10:56:36.776Z,1019.09
2018-01-08T10:57:36.796Z,1019.06
2018-01-08T10:58:36.887Z,1019.03
2018-01-08T10:59:36.851Z,1019.05
2018-01-08T11:00:36.880Z,1019.00
2018-01-08T11:01:37.221Z,1019.05
2018-01-08T11:02:36.940Z,1018.99
2018-01-08T11:03:36.970Z,1018.99
2018-01-08T11:04:37.008Z,1018.95
2018-01-08T11:05:37.085Z,1018.95
2018-01-08T11:06:37.067Z,1018.91
2018-01-08T11:07:37.102Z,1018.89
2018-01-08T11:08:37.477Z,1018.89
2018-01-08T11:09:37.157Z,1018.87
2018-01-08T11:10:37.182Z,1018.87
2018-01-08T11:11:37.222Z,1018.88
2018-01-08T11:12:37.246Z,1018.86
2018-01-08T11:13:37.274Z,1018.81
2018-01-08T11:14:37.658Z,1018.86
2018-01-08T11:15:37.346Z,1018.85
2018-01-08T11:16:37.368Z,1018.87
2018-01-08T11:17:37.397Z,1018.81
2018-01-08T11:18:37.474Z,1018.79
2018-01-08T11:19:37.476Z,1018.78
2018-01-08T11:20:37.843Z,1018.79
2018-01-08T11:21:37.525Z,1018.72
2018-01-08T11:22:37.546Z,1018.68
2018-01-08T11:23:37.628Z,1018.71
2018-01-08T11:24:37.623Z,1018.66
2018-01-08T11:25:37.640Z,1018.66
2018-01-08T11:26:38.033Z,1018.65
2018-01-08T11:27:37.710Z,1018.66
2018-01-08T11:29:37.772Z,1018.61
2018-01-08T11:30:37.800Z,1018.60
2018-01-08T11:31:37.836Z,1018.58
2018-01-08T11:32:37.872Z,1018.55
2018-01-08T11:33:38.234Z,1018.57
2018-01-08T11:34:37.919Z,1018.56
2018-01-08T11:35:37.945Z,1018.55
2018-01-08T11:36:37.977Z,1018.51
2018-01-08T11:37:38.021Z,1018.50
2018-01-08T11:38:38.038Z,1018.48
2018-01-08T11:40:38.450Z,1018.43
2018-01-08T11:41:38.189Z,1018.44
2018-01-08T11:42:38.156Z,1018.46
2018-01-08T11:43:38.197Z,1018.43
2018-01-08T11:45:38.306Z,1018.41
2018-01-08T11:46:38.279Z,1018.35
2018-01-08T11:47:38.663Z,1018.32
2018-01-08T11:48:38.344Z,1018.37
2018-01-08T11:49:38.374Z,1018.34
2018-01-08T11:50:39.142Z,1018.33
2018-01-08T11:51:38.433Z,1018.30
2018-01-08T11:52:39.700Z,1018.23
2018-01-08T11:55:38.859Z,1018.24
2018-01-08T11:56:38.585Z,1018.21
2018-01-08T11:57:38.669Z,1018.18
2018-01-08T11:58:38.652Z,1018.26
2018-01-08T11:59:38.699Z,1018.17
2018-01-08T12:00:39.117Z,1018.21
2018-01-08T12:01:38.735Z,1018.20
2018-01-08T12:02:39.131Z,1018.22
2018-01-08T12:03:40.999Z,1018.19
2018-01-08T12:04:41.804Z,1018.19
2018-01-08T12:05:39.870Z,1018.21
2018-01-08T12:06:39.882Z,1018.18
2018-01-08T12:08:40.297Z,1018.13
2018-01-08T12:22:40.701Z,1017.96
2018-01-08T12:24:41.036Z,1017.90
2018-01-08T12:26:41.040Z,1017.91
2018-01-08T12:27:40.421Z,1017.91
2018-01-08T12:34:42.009Z,1018.01
2018-01-08T12:35:41.809Z,1018.04
2018-01-08T12:39:42.244Z,1017.93
2018-01-08T12:40:42.762Z,1017.99
2018-01-08T12:42:44.002Z,1017.93
2018-01-08T12:46:44.437Z,1017.82
2018-01-08T12:47:40.970Z,1017.79
2018-01-08T12:49:41.192Z,1017.76
2018-01-08T12:50:41.396Z,1017.77
2018-01-08T12:52:40.894Z,1017.72
2018-01-08T12:53:41.619Z,1017.68
2018-01-08T12:59:40.877Z,1017.64
2018-01-08T13:00:40.623Z,1017.69